createdAt,value
2023-05-05T00:01:06.644Z,98131.41
2023-05-05T00:03:36.552Z,98121.75
2023-05-05T00:06:07.218Z,98128.44
2023-05-05T00:08:38.405Z,98134.72
2023-05-05T00:11:07.057Z,98127.66
2023-05-05T00:13:35.981Z,98131.28
2023-05-05T00:16:04.920Z,98126.41
2023-05-05T00:18:34.480Z,98132.28
2023-05-05T00:21:03.517Z,98127.66
2023-05-05T00:23:32.051Z,98133.50
2023-05-05T00:26:02.661Z,98129.66
2023-05-05T00:28:32.322Z,98133.50
2023-05-05T00:31:01.733Z,98140.56
2023-05-05T00:33:30.322Z,98135.97
2023-05-05T00:35:58.858Z,98132.94
2023-05-05T00:38:27.898Z,98130.53
2023-05-05T00:40:56.399Z,98133.56
2023-05-05T00:43:26.200Z,98128.31
2023-05-05T00:46:02.477Z,98126.50
2023-05-05T00:48:32.500Z,98131.53
2023-05-05T00:51:02.403Z,98128.53
2023-05-05T00:53:31.756Z,98124.91
2023-05-05T00:56:00.835Z,98120.88
2023-05-05T00:58:31.928Z,98120.47
2023-05-05T01:01:00.401Z,98126.13
2023-05-05T01:03:29.649Z,98126.94
2023-05-05T01:06:15.412Z,98115.38
2023-05-05T01:09:01.868Z,98116.41
2023-05-05T01:11:52.636Z,98126.72
2023-05-05T01:14:35.522Z,98126.53
2023-05-05T01:17:17.190Z,98123.91
2023-05-05T01:20:16.866Z,98119.63
2023-05-05T01:22:52.628Z,98131.81
2023-05-05T01:25:50.538Z,98133.41
2023-05-05T01:28:45.733Z,98120.88
2023-05-05T01:31:52.177Z,98129.94
2023-05-05T01:34:27.363Z,98124.72
2023-05-05T01:37:05.327Z,98121.69
2023-05-05T01:39:36.178Z,98128.59
2023-05-05T01:42:13.913Z,98128.19
2023-05-05T01:44:45.174Z,98128.19
2023-05-05T01:47:19.822Z,98128.59
2023-05-05T01:49:49.966Z,98121.53
2023-05-05T01:52:20.200Z,98121.53
2023-05-05T01:54:52.373Z,98127.22
2023-05-05T01:57:24.004Z,98121.16
2023-05-05T01:59:54.216Z,98122.97
2023-05-05T02:02:27.959Z,98129.03
2023-05-05T02:05:00.274Z,98131.47
2023-05-05T02:07:31.569Z,98130.44
2023-05-05T02:10:02.823Z,98128.22
2023-05-05T02:12:34.053Z,98140.78
2023-05-05T02:15:04.783Z,98139.75
2023-05-05T02:17:34.875Z,98139.97
2023-05-05T02:20:05.971Z,98145.63
2023-05-05T02:22:35.373Z,98144.81
2023-05-05T02:25:03.952Z,98145.41
2023-05-05T02:27:36.590Z,98152.69
2023-05-05T02:30:14.465Z,98152.88
2023-05-05T02:32:51.785Z,98152.00
2023-05-05T02:35:26.313Z,98160.28
2023-05-05T02:38:02.852Z,98153.41
2023-05-05T02:40:35.431Z,98162.91
2023-05-05T02:43:10.921Z,98159.28
2023-05-05T02:45:40.044Z,98160.69
2023-05-05T02:48:11.227Z,98163.91
2023-05-05T02:50:40.859Z,98163.09
2023-05-05T02:53:09.859Z,98164.72
2023-05-05T02:55:45.122Z,98159.47
2023-05-05T02:58:25.562Z,98160.06
2023-05-05T03:01:08.081Z,98156.84
2023-05-05T03:03:46.211Z,98149.16
2023-05-05T03:06:19.801Z,98151.56
2023-05-05T03:08:57.545Z,98153.97
2023-05-05T03:11:32.253Z,98160.44
2023-05-05T03:14:10.445Z,98159.22
2023-05-05T03:16:42.905Z,98157.00
2023-05-05T03:19:15.768Z,98160.03
2023-05-05T03:21:44.743Z,98155.97
2023-05-05T03:24:15.610Z,98160.41
2023-05-05T03:26:44.939Z,98158.56
2023-05-05T03:29:13.889Z,98152.28
2023-05-05T03:31:43.242Z,98152.47
2023-05-05T03:34:13.720Z,98156.28
2023-05-05T03:36:42.280Z,98160.34
2023-05-05T03:39:11.361Z,98161.34
2023-05-05T03:41:39.853Z,98165.38
2023-05-05T03:44:08.610Z,98168.56
2023-05-05T03:46:37.047Z,98162.31
2023-05-05T03:49:05.947Z,98163.72
2023-05-05T03:51:35.698Z,98167.53
2023-05-05T03:54:04.483Z,98169.75
2023-05-05T03:56:32.936Z,98169.91
2023-05-05T03:59:01.438Z,98177.00
2023-05-05T04:01:31.512Z,98168.31
2023-05-05T04:03:59.989Z,98174.72
2023-05-05T04:06:28.764Z,98172.75
2023-05-05T04:08:58.778Z,98171.31
2023-05-05T04:11:27.618Z,98182.97
2023-05-05T04:13:56.616Z,98178.38
2023-05-05T04:16:25.102Z,98179.94
2023-05-05T04:18:54.195Z,98178.34
2023-05-05T04:21:22.574Z,98183.59
2023-05-05T04:23:50.994Z,98190.81
2023-05-05T04:26:21.021Z,98180.72
2023-05-05T04:28:49.527Z,98185.78
2023-05-05T04:31:17.993Z,98189.97
2023-05-05T04:33:46.478Z,98187.75
2023-05-05T04:36:16.085Z,98186.94
2023-05-05T04:38:45.134Z,98185.34
2023-05-05T04:41:13.621Z,98183.50
2023-05-05T04:43:43.403Z,98184.31
2023-05-05T04:46:11.908Z,98183.94
2023-05-05T04:48:40.497Z,98196.06
2023-05-05T04:51:09.414Z,98197.69
2023-05-05T04:53:37.906Z,98200.09
2023-05-05T04:56:06.768Z,98199.31
2023-05-05T04:58:36.592Z,98202.53
2023-05-05T05:01:08.238Z,98204.16
2023-05-05T05:03:37.843Z,98198.53
2023-05-05T05:06:08.381Z,98199.13
2023-05-05T05:08:37.100Z,98196.50
2023-05-05T05:11:06.482Z,98203.25
2023-05-05T05:13:35.502Z,98197.78
2023-05-05T05:16:04.297Z,98196.56
2023-05-05T05:18:35.227Z,98201.06
2023-05-05T05:21:03.720Z,98201.91
2023-05-05T05:23:32.648Z,98204.56
2023-05-05T05:26:01.708Z,98202.34
2023-05-05T05:28:30.893Z,98212.44
2023-05-05T05:31:00.737Z,98208.44
2023-05-05T05:33:29.356Z,98207.66
2023-05-05T05:35:59.200Z,98193.72
2023-05-05T05:38:27.719Z,98206.06
2023-05-05T05:40:56.601Z,98206.47
2023-05-05T05:43:25.127Z,98205.28
2023-05-05T05:45:53.629Z,98205.31
2023-05-05T05:48:25.572Z,98202.88
2023-05-05T05:50:54.577Z,98207.75
2023-05-05T05:53:24.534Z,98201.31
2023-05-05T05:55:53.991Z,98211.19
2023-05-05T05:58:22.524Z,98210.03
2023-05-05T06:00:50.987Z,98217.09
2023-05-05T06:03:19.577Z,98206.00
2023-05-05T06:05:48.311Z,98210.66
2023-05-05T06:08:17.315Z,98214.31
2023-05-05T06:10:48.332Z,98211.06
2023-05-05T06:13:17.002Z,98218.97
2023-05-05T06:15:45.480Z,98211.28
2023-05-05T06:18:15.876Z,98206.25
2023-05-05T06:20:44.893Z,98211.50
2023-05-05T06:23:13.426Z,98218.56
2023-05-05T06:25:42.082Z,98218.78
2023-05-05T06:28:11.927Z,98221.41
2023-05-05T06:30:40.987Z,98219.78
2023-05-05T06:33:09.997Z,98220.00
2023-05-05T06:35:38.458Z,98216.72
2023-05-05T06:38:07.221Z,98218.75
2023-05-05T06:40:36.257Z,98216.34
2023-05-05T06:43:04.701Z,98216.75
2023-05-05T06:45:34.609Z,98220.38
2023-05-05T06:48:04.212Z,98216.09
2023-05-05T06:50:36.044Z,98211.84
2023-05-05T06:53:05.255Z,98213.66
2023-05-05T06:55:33.737Z,98209.22
2023-05-05T06:58:02.150Z,98210.81
2023-05-05T07:00:30.923Z,98206.53
2023-05-05T07:03:00.842Z,98210.56
2023-05-05T07:05:29.286Z,98210.31
2023-05-05T07:07:58.781Z,98206.22
2023-05-05T07:10:28.641Z,98203.13
2023-05-05T07:12:57.718Z,98200.25
2023-05-05T07:15:29.228Z,98206.88
2023-05-05T07:17:58.960Z,98205.41
2023-05-05T07:20:29.262Z,98213.03
2023-05-05T07:22:57.710Z,98213.38
2023-05-05T07:25:28.037Z,98208.66
2023-05-05T07:27:56.549Z,98212.47
2023-05-05T07:30:26.012Z,98207.94
2023-05-05T07:32:55.164Z,98211.09
2023-05-05T07:35:24.354Z,98215.88
2023-05-05T07:37:54.827Z,98217.44
2023-05-05T07:40:23.566Z,98215.34
2023-05-05T07:42:51.996Z,98219.91
2023-05-05T07:45:20.861Z,98228.59
2023-05-05T07:47:49.425Z,98227.69
2023-05-05T07:50:18.510Z,98225.81
2023-05-05T07:52:51.738Z,98219.44
2023-05-05T07:55:29.602Z,98218.31
2023-05-05T07:57:58.644Z,98213.56
2023-05-05T08:00:27.431Z,98216.72
2023-05-05T08:02:56.069Z,98210.59
2023-05-05T08:05:25.683Z,98202.78
2023-05-05T08:07:54.870Z,98199.03
2023-05-05T08:10:24.175Z,98194.72
2023-05-05T08:12:54.966Z,98191.28
2023-05-05T08:15:25.606Z,98190.78
2023-05-05T08:17:55.898Z,98187.59
2023-05-05T08:20:29.227Z,98191.50
2023-05-05T08:22:58.009Z,98189.00
2023-05-05T08:25:26.958Z,98181.78
2023-05-05T08:27:57.722Z,98191.19
2023-05-05T08:30:27.096Z,98181.09
2023-05-05T08:32:57.009Z,98178.38
2023-05-05T08:35:25.832Z,98176.22
2023-05-05T08:37:55.002Z,98165.53
2023-05-05T08:40:34.277Z,98169.06
2023-05-05T08:43:04.906Z,98170.38
2023-05-05T08:45:34.594Z,98170.00
2023-05-05T08:48:06.654Z,98174.94
2023-05-05T08:50:35.157Z,98175.03
2023-05-05T08:53:12.336Z,98168.38
2023-05-05T08:55:50.508Z,98165.00
2023-05-05T08:58:21.377Z,98163.28
2023-05-05T09:00:51.186Z,98172.94
2023-05-05T09:03:21.418Z,98169.34
2023-05-05T09:05:52.010Z,98179.50
2023-05-05T09:08:22.435Z,98166.38
2023-05-05T09:10:53.152Z,98170.50
2023-05-05T09:13:24.116Z,98172.78
2023-05-05T09:15:53.735Z,98181.63
2023-05-05T09:18:22.805Z,98177.00
2023-05-05T09:20:53.169Z,98177.56
2023-05-05T09:23:23.041Z,98180.31
2023-05-05T09:26:08.894Z,98177.31
2023-05-05T09:28:38.900Z,98177.97
2023-05-05T09:31:16.202Z,98178.59
2023-05-05T09:33:45.456Z,98175.50
2023-05-05T09:36:13.883Z,98179.56
2023-05-05T09:38:42.344Z,98176.00
2023-05-05T09:41:11.219Z,98167.63
2023-05-05T09:43:58.645Z,98174.88
2023-05-05T09:46:27.652Z,98161.47
2023-05-05T09:48:56.617Z,98159.41
2023-05-05T09:51:31.918Z,98157.41
2023-05-05T09:54:00.605Z,98160.44
2023-05-05T09:56:40.264Z,98154.72
2023-05-05T09:59:13.300Z,98153.75
2023-05-05T10:01:43.412Z,98155.91
2023-05-05T10:04:25.371Z,98157.03
2023-05-05T10:06:56.160Z,98151.50
2023-05-05T10:09:25.624Z,98145.94
2023-05-05T10:11:54.855Z,98153.19
2023-05-05T10:14:28.207Z,98150.91
2023-05-05T10:16:57.585Z,98149.13
2023-05-05T10:19:29.035Z,98159.00
2023-05-05T10:22:09.354Z,98150.06
2023-05-05T10:24:44.173Z,98150.94
2023-05-05T10:27:20.179Z,98151.34
2023-05-05T10:30:02.453Z,98146.91
2023-05-05T10:35:22.584Z,98152.22
2023-05-05T10:37:52.143Z,98146.16
2023-05-05T10:40:23.673Z,98143.75
2023-05-05T10:42:55.278Z,98145.59
2023-05-05T10:45:25.129Z,98150.34
2023-05-05T10:47:57.220Z,98148.75
2023-05-05T10:50:34.408Z,98146.66
2023-05-05T10:53:16.468Z,98142.13
2023-05-05T10:55:56.748Z,98140.03
2023-05-05T10:58:47.137Z,98126.50
2023-05-05T11:01:34.084Z,98125.75
2023-05-05T11:04:22.438Z,98127.69
2023-05-05T11:07:27.077Z,98123.41
2023-05-05T11:09:58.696Z,98127.09
2023-05-05T11:12:27.132Z,98129.84
2023-05-05T11:15:38.380Z,98117.41
2023-05-05T11:18:08.954Z,98116.91
2023-05-05T11:21:09.137Z,98109.81
2023-05-05T11:23:37.588Z,98115.91
2023-05-05T11:26:06.628Z,98109.00
2023-05-05T11:28:35.619Z,98107.47
2023-05-05T11:31:22.875Z,98116.31
2023-05-05T11:33:54.132Z,98102.53
2023-05-05T11:36:41.480Z,98103.13
2023-05-05T11:39:20.901Z,98111.34
2023-05-05T11:42:25.874Z,98101.88
2023-05-05T11:44:55.634Z,98100.56
2023-05-05T11:47:32.755Z,98093.13
2023-05-05T11:50:19.327Z,98086.84
2023-05-05T11:52:48.716Z,98097.94
2023-05-05T11:55:23.894Z,98092.88
2023-05-05T11:57:53.426Z,98095.75
2023-05-05T12:00:33.845Z,98095.25
2023-05-05T12:03:03.882Z,98087.81
2023-05-05T12:05:36.329Z,98075.88
2023-05-05T12:08:05.942Z,98069.28
2023-05-05T12:10:34.475Z,98073.56
2023-05-05T12:13:03.551Z,98070.66
2023-05-05T12:15:33.898Z,98071.78
2023-05-05T12:18:03.216Z,98068.31
2023-05-05T12:20:36.657Z,98065.72
2023-05-05T12:23:05.788Z,98066.53
2023-05-05T12:25:40.068Z,98061.78
2023-05-05T12:28:11.038Z,98057.56
2023-05-05T12:30:39.561Z,98049.88
2023-05-05T12:33:10.039Z,98061.09
2023-05-05T12:35:44.427Z,98062.50
2023-05-05T12:38:14.462Z,98065.69
2023-05-05T12:40:49.732Z,98061.69
2023-05-05T12:43:30.359Z,98061.13
2023-05-05T12:46:08.395Z,98052.66
2023-05-05T12:48:39.134Z,98051.56
2023-05-05T12:51:17.932Z,98044.91
2023-05-05T12:53:50.333Z,98052.09
2023-05-05T12:56:37.506Z,98066.72
2023-05-05T12:59:08.745Z,98064.06
2023-05-05T13:01:39.178Z,98062.78
2023-05-05T13:04:12.919Z,98064.34
2023-05-05T13:06:44.638Z,98055.78
2023-05-05T13:09:25.845Z,98055.78
2023-05-05T13:11:55.613Z,98058.97
2023-05-05T13:14:24.521Z,98059.22
2023-05-05T13:16:53.959Z,98062.66
2023-05-05T13:19:24.311Z,98057.81
2023-05-05T13:21:54.610Z,98063.19
2023-05-05T13:24:34.516Z,98055.97
2023-05-05T13:27:11.821Z,98062.38
2023-05-05T13:29:41.614Z,98059.41
2023-05-05T13:32:10.173Z,98057.75
2023-05-05T13:34:40.012Z,98058.28
2023-05-05T13:37:09.893Z,98059.50
2023-05-05T13:39:38.311Z,98066.97
2023-05-05T13:42:06.923Z,98066.19
2023-05-05T13:44:35.454Z,98057.59
2023-05-05T13:47:04.223Z,98060.78
2023-05-05T13:49:32.727Z,98066.81
2023-05-05T13:52:02.135Z,98054.53
2023-05-05T13:54:33.099Z,98062.19
2023-05-05T13:57:01.507Z,98065.03
2023-05-05T13:59:30.109Z,98073.19
2023-05-05T14:01:58.929Z,98071.56
2023-05-05T14:04:28.241Z,98075.25
2023-05-05T14:06:58.275Z,98085.00
2023-05-05T14:09:26.862Z,98087.31
2023-05-05T14:11:56.740Z,98088.56
2023-05-05T14:14:26.353Z,98089.81
2023-05-05T14:16:55.459Z,98091.31
2023-05-05T14:19:24.527Z,98089.69
2023-05-05T14:21:53.611Z,98085.19
2023-05-05T14:24:22.093Z,98096.28
2023-05-05T14:26:51.044Z,98095.69
2023-05-05T14:29:20.918Z,98089.53
2023-05-05T14:31:49.357Z,98094.03
2023-05-05T14:34:17.889Z,98095.88
2023-05-05T14:36:46.431Z,98097.56
2023-05-05T14:39:15.039Z,98093.78
2023-05-05T14:41:43.568Z,98100.81
2023-05-05T14:44:12.547Z,98112.66
2023-05-05T14:46:43.563Z,98113.47
2023-05-05T14:49:13.912Z,98103.53
2023-05-05T14:51:43.233Z,98106.94
2023-05-05T14:54:24.178Z,98118.13
2023-05-05T14:56:56.496Z,98126.56
2023-05-05T14:59:25.058Z,98126.09
2023-05-05T15:01:55.038Z,98128.31
2023-05-05T15:04:23.662Z,98128.97
2023-05-05T15:06:52.718Z,98126.97
2023-05-05T15:09:21.683Z,98123.50
2023-05-05T15:11:51.086Z,98132.41
2023-05-05T15:14:19.569Z,98122.59
2023-05-05T15:16:48.174Z,98116.41
2023-05-05T15:19:17.965Z,98107.00
2023-05-05T15:21:53.116Z,98096.41
2023-05-05T15:24:21.977Z,98099.19
2023-05-05T15:26:50.476Z,98109.25
2023-05-05T15:29:19.573Z,98108.66
2023-05-05T15:31:49.092Z,98109.41
2023-05-05T15:34:21.966Z,98111.22
2023-05-05T15:36:50.855Z,98105.28
2023-05-05T15:39:19.699Z,98109.28
2023-05-05T15:41:48.146Z,98101.66
2023-05-05T15:44:16.573Z,98100.06
2023-05-05T15:46:45.721Z,98090.84
2023-05-05T15:49:14.655Z,98099.28
2023-05-05T15:51:44.516Z,98100.53
2023-05-05T15:54:13.539Z,98106.09
2023-05-05T15:56:42.022Z,98107.25
2023-05-05T15:59:10.484Z,98108.06
2023-05-05T16:01:39.102Z,98104.50
2023-05-05T16:04:07.700Z,98096.34
2023-05-05T16:06:36.201Z,98092.88
2023-05-05T16:09:06.134Z,98092.19
2023-05-05T16:11:34.556Z,98086.06
2023-05-05T16:14:03.031Z,98096.09
2023-05-05T16:16:31.786Z,98090.22
2023-05-05T16:19:00.277Z,98083.78
2023-05-05T16:21:28.850Z,98079.31
2023-05-05T16:23:57.678Z,98078.97
2023-05-05T16:26:29.141Z,98074.94
2023-05-05T16:28:58.070Z,98080.59
2023-05-05T16:31:26.507Z,98085.75
2023-05-05T16:33:54.962Z,98085.19
2023-05-05T16:36:24.197Z,98085.75
2023-05-05T16:38:52.818Z,98073.19
2023-05-05T16:41:22.514Z,98077.94
2023-05-05T16:43:52.418Z,98080.81
2023-05-05T16:46:21.116Z,98088.53
2023-05-05T16:48:49.624Z,98085.41
2023-05-05T16:51:18.588Z,98083.91
2023-05-05T16:53:49.694Z,98078.03
2023-05-05T16:56:19.195Z,98087.03
2023-05-05T16:58:48.793Z,98089.75
2023-05-05T17:01:18.756Z,98089.75
2023-05-05T17:03:55.344Z,98090.22
2023-05-05T17:06:23.798Z,98089.75
2023-05-05T17:08:52.970Z,98079.16
2023-05-05T17:11:21.405Z,98084.44
2023-05-05T17:13:50.273Z,98086.06
2023-05-05T17:16:20.262Z,98086.78
2023-05-05T17:18:48.802Z,98092.31
2023-05-05T17:21:17.621Z,98090.72
2023-05-05T17:23:46.544Z,98088.63
2023-05-05T17:26:14.905Z,98085.41
2023-05-05T17:28:43.842Z,98085.06
2023-05-05T17:31:12.602Z,98088.41
2023-05-05T17:33:42.854Z,98086.34
2023-05-05T17:36:11.725Z,98073.91
2023-05-05T17:38:40.115Z,98074.94
2023-05-05T17:41:08.595Z,98079.09
2023-05-05T17:43:37.064Z,98077.47
2023-05-05T17:46:05.944Z,98072.16
2023-05-05T17:48:34.522Z,98079.22
2023-05-05T17:51:05.760Z,98078.41
2023-05-05T17:53:34.855Z,98083.72
2023-05-05T17:56:03.318Z,98094.44
2023-05-05T17:58:31.711Z,98088.81
2023-05-05T18:01:00.228Z,98084.88
2023-05-05T18:03:28.855Z,98091.22
2023-05-05T18:05:57.445Z,98086.97
2023-05-05T18:08:27.275Z,98086.38
2023-05-05T18:10:56.217Z,98081.69
2023-05-05T18:13:24.705Z,98081.69
2023-05-05T18:15:53.628Z,98080.91
2023-05-05T18:18:22.299Z,98081.97
2023-05-05T18:20:50.923Z,98079.75
2023-05-05T18:23:19.549Z,98085.50
2023-05-05T18:25:49.296Z,98084.41
2023-05-05T18:28:17.852Z,98088.69
2023-05-05T18:30:46.420Z,98089.97
2023-05-05T18:33:14.989Z,98100.63
2023-05-05T18:35:43.443Z,98105.03
2023-05-05T18:38:12.211Z,98110.88
2023-05-05T18:40:40.691Z,98109.81
2023-05-05T18:43:11.200Z,98116.81
2023-05-05T18:45:39.644Z,98108.53
2023-05-05T18:48:08.720Z,98110.00
2023-05-05T18:50:39.154Z,98126.84
2023-05-05T18:53:07.659Z,98118.31
2023-05-05T18:55:36.525Z,98123.44
2023-05-05T18:58:04.922Z,98122.97
2023-05-05T19:00:34.773Z,98122.38
2023-05-05T19:03:03.911Z,98128.94
2023-05-05T19:05:32.431Z,98138.31
2023-05-05T19:08:01.466Z,98135.56
2023-05-05T19:10:29.974Z,98149.19
2023-05-05T19:12:59.740Z,98149.63
2023-05-05T19:15:28.512Z,98147.94
2023-05-05T19:17:58.447Z,98144.94
2023-05-05T19:20:26.992Z,98144.00
2023-05-05T19:22:57.580Z,98142.00
2023-05-05T19:25:26.053Z,98141.44
2023-05-05T19:27:54.481Z,98152.28
2023-05-05T19:30:23.691Z,98158.50
2023-05-05T19:32:52.284Z,98159.78
2023-05-05T19:35:23.324Z,98169.31
2023-05-05T19:37:51.908Z,98169.31
2023-05-05T19:40:20.718Z,98162.88
2023-05-05T19:42:49.289Z,98165.00
2023-05-05T19:45:17.927Z,98175.63
2023-05-05T19:47:46.549Z,98182.34
2023-05-05T19:50:16.066Z,98178.13
2023-05-05T19:52:45.872Z,98174.94
2023-05-05T19:55:14.331Z,98182.91
2023-05-05T19:57:42.795Z,98180.69
2023-05-05T20:00:13.263Z,98184.13
2023-05-05T20:02:42.421Z,98183.94
2023-05-05T20:05:13.977Z,98193.69
2023-05-05T20:07:42.835Z,98187.63
2023-05-05T20:10:14.215Z,98190.69
2023-05-05T20:12:48.266Z,98196.34
2023-05-05T20:15:18.872Z,98201.25
2023-05-05T20:17:47.930Z,98202.91
2023-05-05T20:20:18.994Z,98201.28
2023-05-05T20:22:49.209Z,98210.28
2023-05-05T20:25:19.030Z,98201.81
2023-05-05T20:27:47.888Z,98210.28
2023-05-05T20:30:16.656Z,98209.38
2023-05-05T20:32:45.258Z,98206.72
2023-05-05T20:35:13.884Z,98206.16
2023-05-05T20:37:42.638Z,98211.03
2023-05-05T20:40:12.433Z,98209.44
2023-05-05T20:42:42.440Z,98209.03
2023-05-05T20:45:12.636Z,98211.28
2023-05-05T20:47:41.208Z,98210.28
2023-05-05T20:50:12.394Z,98222.25
2023-05-05T20:52:40.939Z,98216.38
2023-05-05T20:55:09.987Z,98218.22
2023-05-05T20:57:38.537Z,98216.22
2023-05-05T21:00:10.533Z,98219.88
2023-05-05T21:02:39.380Z,98218.66
2023-05-05T21:05:09.603Z,98213.84
2023-05-05T21:07:38.132Z,98217.91
2023-05-05T21:10:08.584Z,98211.00
2023-05-05T21:12:37.544Z,98217.09
2023-05-05T21:15:10.375Z,98212.22
2023-05-05T21:17:39.381Z,98217.28
2023-05-05T21:20:09.763Z,98223.97
2023-05-05T21:22:38.432Z,98224.38
2023-05-05T21:25:15.773Z,98225.19
2023-05-05T21:27:44.541Z,98231.28
2023-05-05T21:30:16.970Z,98232.50
2023-05-05T21:32:46.132Z,98224.00
2023-05-05T21:35:14.780Z,98228.28
2023-05-05T21:37:43.376Z,98230.91
2023-05-05T21:40:13.874Z,98235.16
2023-05-05T21:42:43.168Z,98240.22
2023-05-05T21:45:14.395Z,98234.16
2023-05-05T21:47:42.985Z,98233.31
2023-05-05T21:50:13.720Z,98233.16
2023-05-05T21:52:42.172Z,98239.41
2023-05-05T21:55:11.396Z,98234.16
2023-05-05T21:57:39.881Z,98244.25
2023-05-05T22:00:16.623Z,98236.56
2023-05-05T22:02:47.106Z,98230.09
2023-05-05T22:05:15.610Z,98227.06
2023-05-05T22:07:44.035Z,98237.97
2023-05-05T22:10:13.012Z,98219.97
2023-05-05T22:12:41.731Z,98223.41
2023-05-05T22:15:12.872Z,98226.47
2023-05-05T22:17:41.687Z,98233.13
2023-05-05T22:20:12.736Z,98227.28
2023-05-05T22:22:41.163Z,98232.91
2023-05-05T22:25:11.232Z,98239.78
2023-05-05T22:27:40.636Z,98233.94
2023-05-05T22:30:10.760Z,98242.41
2023-05-05T22:32:39.334Z,98232.13
2023-05-05T22:35:12.584Z,98233.31
2023-05-05T22:37:41.256Z,98226.81
2023-05-05T22:40:11.006Z,98227.63
2023-05-05T22:42:39.740Z,98221.56
2023-05-05T22:45:11.183Z,98223.19
2023-05-05T22:47:40.021Z,98229.06
2023-05-05T22:50:12.954Z,98229.84
2023-05-05T22:52:41.518Z,98232.06
2023-05-05T22:55:13.551Z,98230.88
2023-05-05T22:57:43.229Z,98223.59
2023-05-05T23:00:12.952Z,98227.63
2023-05-05T23:02:42.209Z,98230.06
2023-05-05T23:05:13.046Z,98229.25
2023-05-05T23:07:42.212Z,98223.78
2023-05-05T23:10:12.024Z,98232.88
2023-05-05T23:12:40.579Z,98223.56
2023-05-05T23:15:10.611Z,98224.38
2023-05-05T23:17:39.822Z,98220.31
2023-05-05T23:20:12.153Z,98224.75
2023-05-05T23:22:42.088Z,98216.50
2023-05-05T23:25:11.476Z,98216.28
2023-05-05T23:27:41.074Z,98214.22
2023-05-05T23:30:11.364Z,98217.88
2023-05-05T23:32:40.384Z,98215.81
2023-05-05T23:35:11.391Z,98204.09
2023-05-05T23:37:41.039Z,98215.59
2023-05-05T23:40:10.815Z,98214.41
2023-05-05T23:42:39.235Z,98216.63
2023-05-05T23:45:09.522Z,98210.31
2023-05-05T23:47:38.384Z,98210.13
2023-05-05T23:50:09.010Z,98208.50
2023-05-05T23:52:38.759Z,98207.69
2023-05-05T23:55:09.575Z,98204.06
2023-05-05T23:57:39.316Z,98192.34
